Time;durP1;ratioP1;P1;durP2;ratioP2;P2;SDS_P1;SDS_P2;PMS_P1;PMS_P2;Temp;Humidity;BMP_temperature;BMP_pressure;BME280_temperature;BME280_humidity;BME280_pressure;Samples;Min_cycle;Max_cycle;Signal;HPM_P1;HPM_P2
2023/03/13 00:01:57;;;;;;;6.17;4.00;;;8.70;90.80;;;;;;4943369;29;20225;-81
2023/03/13 00:04:25;;;;;;;6.73;4.30;;;8.70;91.00;;;;;;4932558;29;20221;-80
2023/03/13 00:06:52;;;;;;;5.87;4.07;;;8.70;91.30;;;;;;4935210;29;20655;-82
2023/03/13 00:09:22;;;;;;;4.93;3.40;;;8.70;91.30;;;;;;4934255;29;20238;-81
2023/03/13 00:11:49;;;;;;;5.30;4.33;;;8.70;91.30;;;;;;4936376;29;20747;-80
2023/03/13 00:14:16;;;;;;;7.87;4.00;;;8.60;91.20;;;;;;4926195;29;20635;-81
2023/03/13 00:16:43;;;;;;;6.20;3.93;;;8.60;91.10;;;;;;4939484;29;20213;-81
2023/03/13 00:19:10;;;;;;;6.70;4.43;;;8.60;91.20;;;;;;4918319;29;20520;-82
2023/03/13 00:21:39;;;;;;;13.50;4.53;;;8.60;91.20;;;;;;4924117;29;20307;-80
2023/03/13 00:24:09;;;;;;;5.07;3.03;;;8.50;91.20;;;;;;4939588;29;20227;-80
2023/03/13 00:26:36;;;;;;;6.93;3.43;;;8.50;91.10;;;;;;4931121;29;20303;-81
2023/03/13 00:29:04;;;;;;;7.30;3.70;;;8.50;91.00;;;;;;4934793;29;20263;-80
2023/03/13 00:31:31;;;;;;;5.17;2.90;;;8.40;90.90;;;;;;4927730;29;20214;-81
2023/03/13 00:34:01;;;;;;;4.40;3.87;;;8.40;90.70;;;;;;4922801;29;20522;-81
2023/03/13 00:36:34;;;;;;;7.33;4.47;;;8.30;90.60;;;;;;4936738;29;20626;-80
2023/03/13 00:39:03;;;;;;;4.17;3.63;;;8.30;90.70;;;;;;4930056;29;20214;-81
2023/03/13 00:41:32;;;;;;;4.20;3.50;;;8.30;90.80;;;;;;4915117;29;20208;-81
2023/03/13 00:43:59;;;;;;;5.33;3.47;;;8.30;91.00;;;;;;4935819;29;20265;-81
2023/03/13 00:46:30;;;;;;;6.03;3.80;;;8.30;91.10;;;;;;4928019;29;20294;-80
2023/03/13 00:48:57;;;;;;;5.63;3.77;;;8.30;91.10;;;;;;4934232;29;20656;-80
2023/03/13 00:51:26;;;;;;;6.30;3.87;;;8.20;90.90;;;;;;4913542;29;20225;-80
2023/03/13 00:54:02;;;;;;;7.03;3.77;;;8.30;90.80;;;;;;4936497;29;20281;-81
2023/03/13 00:56:30;;;;;;;4.33;3.40;;;8.20;90.80;;;;;;4932141;29;20215;-80
2023/03/13 00:59:00;;;;;;;4.90;4.43;;;8.20;90.70;;;;;;4937678;29;20221;-80
2023/03/13 01:01:30;;;;;;;8.80;5.57;;;8.10;90.20;;;;;;4922796;29;20217;-81
2023/03/13 01:04:03;;;;;;;9.70;5.53;;;8.00;90.40;;;;;;4926725;29;20569;-81
2023/03/13 01:06:31;;;;;;;8.00;4.90;;;8.00;90.80;;;;;;4924278;29;20525;-81
2023/03/13 01:08:59;;;;;;;11.23;5.60;;;8.00;91.10;;;;;;4932504;29;20274;-80
2023/03/13 01:11:28;;;;;;;8.00;5.47;;;8.00;91.30;;;;;;4930753;29;20276;-80
2023/03/13 01:14:02;;;;;;;7.00;4.10;;;8.00;91.50;;;;;;4926437;29;20219;-80
2023/03/13 01:16:31;;;;;;;7.30;4.10;;;8.00;91.70;;;;;;4928293;29;20617;-80
2023/03/13 01:19:01;;;;;;;6.77;3.30;;;8.00;91.60;;;;;;4937109;29;20714;-80
2023/03/13 01:21:29;;;;;;;10.77;3.97;;;8.00;91.60;;;;;;4935164;29;20216;-80
2023/03/13 01:23:56;;;;;;;6.90;3.83;;;8.10;91.50;;;;;;4932697;29;20214;-80
2023/03/13 01:26:23;;;;;;;6.10;3.87;;;8.00;91.40;;;;;;4931150;29;20235;-80
2023/03/13 01:28:53;;;;;;;6.77;3.90;;;8.00;91.20;;;;;;4935963;29;20654;-80
2023/03/13 01:31:29;;;;;;;6.20;4.07;;;8.00;91.10;;;;;;4933526;29;20199;-80
2023/03/13 01:33:59;;;;;;;9.17;4.17;;;7.90;90.90;;;;;;4932286;29;20212;-80
2023/03/13 01:36:28;;;;;;;4.47;3.97;;;7.90;90.80;;;;;;4915134;29;20544;-81
2023/03/13 01:38:57;;;;;;;5.70;4.20;;;7.90;90.70;;;;;;4932709;29;20558;-80
2023/03/13 01:41:27;;;;;;;5.57;3.93;;;7.90;90.70;;;;;;4931830;29;20229;-81
2023/03/13 01:43:54;;;;;;;4.97;4.17;;;7.80;90.90;;;;;;4938470;29;20278;-81
2023/03/13 01:46:26;;;;;;;9.37;4.43;;;7.80;91.10;;;;;;4937560;29;20286;-80
2023/03/13 01:49:10;;;;;;;8.33;4.87;;;7.80;91.20;;;;;;4927376;29;20635;-80
2023/03/13 01:52:17;;;;;;;7.87;4.50;;;7.80;91.40;;;;;;4936422;29;20302;-80
2023/03/13 01:55:03;;;;;;;10.50;4.50;;;7.90;91.60;;;;;;4927534;29;20219;-80
2023/03/13 01:57:44;;;;;;;5.40;4.37;;;7.90;91.80;;;;;;4937410;29;20214;-80
2023/03/13 02:00:25;;;;;;;8.27;4.83;;;7.90;91.80;;;;;;4935655;29;20221;-80
2023/03/13 02:02:55;;;;;;;6.80;4.80;;;7.90;91.80;;;;;;4937820;29;20540;-80
2023/03/13 02:05:26;;;;;;;7.23;5.50;;;7.90;91.80;;;;;;4946596;29;20229;-80
2023/03/13 02:07:58;;;;;;;10.23;6.10;;;7.90;91.90;;;;;;4924283;29;20231;-80
2023/03/13 02:10:25;;;;;;;9.73;5.80;;;7.90;92.00;;;;;;4932127;29;20640;-80
2023/03/13 02:12:56;;;;;;;9.00;5.23;;;8.00;92.20;;;;;;4939285;29;20618;-79
2023/03/13 02:15:26;;;;;;;9.50;6.47;;;8.00;92.40;;;;;;4935586;29;20551;-80
2023/03/13 02:17:54;;;;;;;18.47;6.53;;;8.10;92.60;;;;;;4934890;29;20205;-81
2023/03/13 02:20:21;;;;;;;8.67;5.77;;;8.10;92.70;;;;;;4937701;29;20208;-80
2023/03/13 02:23:06;;;;;;;7.50;4.90;;;8.20;92.80;;;;;;4924248;29;20208;-80
2023/03/13 02:25:43;;;;;;;12.93;6.70;;;8.20;92.80;;;;;;4932990;29;20239;-80
2023/03/13 02:28:14;;;;;;;7.23;5.77;;;8.20;92.70;;;;;;4932272;29;20231;-80
2023/03/13 02:30:43;;;;;;;8.00;5.77;;;8.20;92.60;;;;;;4937367;29;20300;-81
2023/03/13 02:33:12;;;;;;;6.57;5.07;;;8.20;92.50;;;;;;4915225;29;20230;-81
2023/03/13 02:35:40;;;;;;;9.20;5.27;;;8.20;92.50;;;;;;4947152;29;20656;-80
2023/03/13 02:38:15;;;;;;;8.47;5.80;;;8.10;92.60;;;;;;4948138;29;20678;-81
2023/03/13 02:40:46;;;;;;;6.47;5.33;;;8.10;92.60;;;;;;4920164;29;20206;-81
2023/03/13 02:43:20;;;;;;;7.07;5.20;;;8.10;92.60;;;;;;4931561;29;20220;-81
2023/03/13 02:46:17;;;;;;;6.33;5.47;;;8.10;92.70;;;;;;4915013;29;20301;-81
2023/03/13 02:48:50;;;;;;;10.10;5.60;;;8.20;92.80;;;;;;4931538;29;20207;-80
2023/03/13 02:51:42;;;;;;;7.40;5.63;;;8.20;92.80;;;;;;4935191;29;20292;-80
2023/03/13 02:54:18;;;;;;;8.77;6.97;;;8.20;92.90;;;;;;4932421;29;20518;-81
2023/03/13 02:56:48;;;;;;;10.63;6.57;;;8.20;92.90;;;;;;4910597;29;20212;-81
2023/03/13 02:59:16;;;;;;;5.17;4.67;;;8.20;93.00;;;;;;4928841;29;20218;-81
2023/03/13 03:01:45;;;;;;;9.13;6.13;;;8.10;93.00;;;;;;4940735;29;20520;-81
2023/03/13 03:04:12;;;;;;;9.33;6.77;;;8.20;93.10;;;;;;4933441;29;20303;-82
2023/03/13 03:06:39;;;;;;;6.93;5.60;;;8.20;93.20;;;;;;4932581;29;20296;-81
2023/03/13 03:09:07;;;;;;;8.67;6.03;;;8.20;93.20;;;;;;4915087;29;20267;-81
2023/03/13 03:11:37;;;;;;;12.50;6.37;;;8.20;93.10;;;;;;4931507;29;20296;-81
2023/03/13 03:14:10;;;;;;;9.77;7.00;;;8.20;93.10;;;;;;4916860;29;20686;-80
2023/03/13 03:16:42;;;;;;;7.53;6.10;;;8.20;93.30;;;;;;4915587;29;20227;-81
2023/03/13 03:19:12;;;;;;;10.40;6.10;;;8.10;93.50;;;;;;4925775;29;20207;-80
2023/03/13 03:21:39;;;;;;;9.13;6.53;;;8.10;93.50;;;;;;4930338;29;20219;-81
2023/03/13 03:24:06;;;;;;;10.03;6.63;;;8.20;93.60;;;;;;4927638;29;20241;-80
2023/03/13 03:26:35;;;;;;;8.17;6.63;;;8.20;93.70;;;;;;4929058;29;20642;-80
2023/03/13 03:29:09;;;;;;;11.30;7.17;;;8.20;93.80;;;;;;4932689;29;20221;-81
2023/03/13 03:31:37;;;;;;;9.60;7.30;;;8.20;93.90;;;;;;4931832;29;20211;-81
2023/03/13 03:34:06;;;;;;;10.50;7.33;;;8.30;94.00;;;;;;4929412;29;20236;-81
2023/03/13 03:36:34;;;;;;;7.63;6.13;;;8.30;94.00;;;;;;4936082;29;20258;-81
2023/03/13 03:39:01;;;;;;;11.60;7.57;;;8.30;94.00;;;;;;4931620;29;20210;-81
2023/03/13 03:41:30;;;;;;;13.17;7.40;;;8.40;94.10;;;;;;4929548;29;20216;-81
2023/03/13 03:43:58;;;;;;;7.90;7.07;;;8.40;94.00;;;;;;4947097;29;20213;-81
2023/03/13 03:46:34;;;;;;;10.53;6.90;;;8.40;94.00;;;;;;4931620;29;20200;-81
2023/03/13 03:49:01;;;;;;;7.97;6.77;;;8.40;94.00;;;;;;4933472;29;20202;-81
2023/03/13 03:51:28;;;;;;;8.30;6.50;;;8.40;93.90;;;;;;4936258;29;20196;-81
2023/03/13 03:53:55;;;;;;;9.03;6.60;;;8.40;93.80;;;;;;4936578;29;20269;-82
2023/03/13 03:56:23;;;;;;;10.73;6.17;;;8.40;93.80;;;;;;4913593;29;20206;-80
2023/03/13 03:58:54;;;;;;;7.33;6.33;;;8.40;93.90;;;;;;4931045;29;20211;-81
2023/03/13 04:01:28;;;;;;;11.00;6.77;;;8.40;93.90;;;;;;4934103;29;20214;-81
2023/03/13 04:03:55;;;;;;;8.20;6.40;;;8.40;94.00;;;;;;4934956;29;20271;-81
2023/03/13 04:06:23;;;;;;;9.77;7.20;;;8.40;94.00;;;;;;4917454;29;20652;-81
2023/03/13 04:08:50;;;;;;;9.77;6.73;;;8.30;93.90;;;;;;4933495;29;20202;-81
2023/03/13 04:11:21;;;;;;;8.03;6.73;;;8.30;93.90;;;;;;4929201;29;20306;-81
2023/03/13 04:13:52;;;;;;;9.23;6.60;;;8.30;94.10;;;;;;4924108;29;20551;-81
2023/03/13 04:16:21;;;;;;;10.43;7.53;;;8.30;94.00;;;;;;4918093;29;20212;-81
2023/03/13 04:18:49;;;;;;;9.67;7.63;;;8.20;94.10;;;;;;4925791;29;20323;-81
2023/03/13 04:21:18;;;;;;;8.10;6.60;;;8.20;94.20;;;;;;4931716;29;20208;-81
2023/03/13 04:23:52;;;;;;;8.50;6.67;;;8.20;94.20;;;;;;4929117;29;20229;-81
2023/03/13 04:26:21;;;;;;;11.50;6.80;;;8.20;94.30;;;;;;4921472;29;20648;-81
2023/03/13 04:28:52;;;;;;;8.27;6.53;;;8.20;94.40;;;;;;4918153;29;20240;-81
2023/03/13 04:31:33;;;;;;;7.47;6.30;;;8.20;94.40;;;;;;4928349;29;20202;-81
2023/03/13 04:34:10;;;;;;;9.37;6.70;;;8.10;94.40;;;;;;4919541;29;20212;-81
2023/03/13 04:36:56;;;;;;;10.27;7.67;;;8.10;94.70;;;;;;4911261;29;20211;-81
2023/03/13 04:39:46;;;;;;;7.43;5.93;;;8.00;94.80;;;;;;4928763;29;20753;-81
2023/03/13 04:42:34;;;;;;;9.03;6.10;;;8.00;94.80;;;;;;4929302;29;20215;-81
2023/03/13 04:45:01;;;;;;;10.50;6.50;;;7.90;94.80;;;;;;4912497;29;20228;-82
2023/03/13 04:47:51;;;;;;;7.50;6.30;;;7.90;94.90;;;;;;4920210;29;20717;-81
2023/03/13 04:50:37;;;;;;;8.77;6.70;;;7.90;94.90;;;;;;4932283;29;20342;-81
2023/03/13 04:53:24;;;;;;;10.77;6.47;;;7.90;94.80;;;;;;4920264;29;20224;-81
2023/03/13 04:56:01;;;;;;;9.30;6.30;;;7.80;94.60;;;;;;4931183;29;20214;-82
2023/03/13 04:58:30;;;;;;;9.83;6.70;;;7.90;94.60;;;;;;4933116;29;20297;-82
2023/03/13 05:01:07;;;;;;;8.73;7.10;;;7.80;94.60;;;;;;4932708;29;20307;-82
2023/03/13 05:03:51;;;;;;;8.63;7.27;;;7.80;94.60;;;;;;4921853;29;20653;-80
2023/03/13 05:06:54;;;;;;;9.90;7.43;;;7.80;94.60;;;;;;4948516;29;20210;-80
2023/03/13 05:09:49;;;;;;;8.03;6.80;;;7.90;94.50;;;;;;4911470;29;20204;-81
2023/03/13 05:12:34;;;;;;;9.40;6.37;;;7.80;94.40;;;;;;4914147;29;20241;-81
2023/03/13 05:15:09;;;;;;;7.67;6.50;;;7.80;94.20;;;;;;4935025;29;20215;-82
2023/03/13 05:17:54;;;;;;;8.33;7.43;;;7.80;94.20;;;;;;4936931;29;20218;-81
2023/03/13 05:20:38;;;;;;;9.00;7.30;;;7.80;94.10;;;;;;4931713;29;20257;-82
2023/03/13 05:23:19;;;;;;;10.90;7.00;;;7.80;94.10;;;;;;4934484;29;20216;-81
2023/03/13 05:25:55;;;;;;;11.07;7.33;;;7.80;94.10;;;;;;4935550;29;20243;-82
2023/03/13 05:28:52;;;;;;;11.77;7.63;;;7.90;94.00;;;;;;4915494;29;20207;-81
2023/03/13 05:31:39;;;;;;;11.87;7.90;;;7.90;93.90;;;;;;4924139;29;20665;-81
2023/03/13 05:34:15;;;;;;;10.10;8.47;;;7.90;93.90;;;;;;4934580;29;20762;-83
2023/03/13 05:36:54;;;;;;;10.77;8.27;;;8.00;94.00;;;;;;4934606;29;20209;-81
2023/03/13 05:39:50;;;;;;;10.53;8.77;;;8.00;94.10;;;;;;4935574;29;20239;-81
2023/03/13 05:42:38;;;;;;;12.80;8.83;;;8.10;94.20;;;;;;4948989;29;20215;-81
2023/03/13 05:45:19;;;;;;;11.47;8.53;;;8.10;94.20;;;;;;4928348;29;20239;-80
2023/03/13 05:48:24;;;;;;;13.83;8.63;;;8.20;94.20;;;;;;4954091;28;20215;-81
2023/03/13 05:51:14;;;;;;;12.47;9.37;;;8.30;94.20;;;;;;4951083;29;20666;-81
2023/03/13 05:54:05;;;;;;;11.23;8.33;;;8.30;94.20;;;;;;4920184;28;20218;-82
2023/03/13 05:56:55;;;;;;;13.10;9.13;;;8.40;94.20;;;;;;4916241;29;20226;-83
2023/03/13 05:59:48;;;;;;;13.07;8.47;;;8.50;94.20;;;;;;4923717;29;20733;-83
2023/03/13 06:02:39;;;;;;;11.93;8.70;;;8.60;94.10;;;;;;4923581;29;20196;-81
2023/03/13 06:05:10;;;;;;;13.77;9.23;;;8.60;94.00;;;;;;4932967;29;20238;-83
2023/03/13 06:08:21;;;;;;;12.60;8.87;;;8.60;94.00;;;;;;4872565;29;20577;-82
2023/03/13 06:10:49;;;;;;;12.37;8.93;;;8.70;94.00;;;;;;4901373;29;20678;-81
2023/03/13 06:13:17;;;;;;;10.03;8.13;;;8.70;94.00;;;;;;4930301;29;20204;-80
2023/03/13 06:15:54;;;;;;;15.03;9.33;;;8.80;94.00;;;;;;4928783;29;20655;-81
2023/03/13 06:18:58;;;;;;;15.77;8.90;;;8.80;94.00;;;;;;4920309;29;20209;-81
2023/03/13 06:21:27;;;;;;;16.33;8.20;;;8.80;94.00;;;;;;4915047;29;20214;-81
2023/03/13 06:23:56;;;;;;;11.57;8.87;;;8.90;94.00;;;;;;4914499;29;20545;-81
2023/03/13 06:26:24;;;;;;;12.43;9.73;;;8.90;93.90;;;;;;4927171;29;20245;-81
2023/03/13 06:28:54;;;;;;;12.83;10.03;;;9.00;93.80;;;;;;4930102;29;20579;-81
2023/03/13 06:31:22;;;;;;;14.03;9.23;;;9.00;93.70;;;;;;4921647;29;20556;-80
2023/03/13 06:33:53;;;;;;;11.00;9.50;;;9.10;93.60;;;;;;4930762;29;20570;-81
2023/03/13 06:36:23;;;;;;;12.40;9.33;;;9.10;93.40;;;;;;4934963;29;20240;-81
2023/03/13 06:38:50;;;;;;;13.27;9.23;;;9.10;93.30;;;;;;4934964;29;20220;-81
2023/03/13 06:41:18;;;;;;;15.10;10.43;;;9.20;93.30;;;;;;4934245;29;20222;-81
2023/03/13 06:43:45;;;;;;;14.83;9.43;;;9.10;93.40;;;;;;4924361;29;20307;-81
2023/03/13 06:46:19;;;;;;;11.23;8.60;;;9.20;93.40;;;;;;4936915;29;20225;-80
2023/03/13 06:48:47;;;;;;;11.97;9.73;;;9.30;93.50;;;;;;4916241;29;20663;-80
2023/03/13 06:51:16;;;;;;;13.03;10.17;;;9.30;93.60;;;;;;4931344;29;20214;-80
2023/03/13 06:53:46;;;;;;;13.70;9.97;;;9.40;93.60;;;;;;4918949;29;20309;-81
2023/03/13 06:56:13;;;;;;;11.67;10.47;;;9.40;93.60;;;;;;4930977;29;20273;-81
2023/03/13 06:58:40;;;;;;;13.00;9.57;;;9.50;93.60;;;;;;4920676;29;20231;-82
2023/03/13 07:01:10;;;;;;;13.17;9.90;;;9.50;93.50;;;;;;4935793;29;20225;-81
2023/03/13 07:03:40;;;;;;;14.10;10.70;;;9.60;93.50;;;;;;4937042;29;20194;-81
2023/03/13 07:06:08;;;;;;;13.10;8.83;;;9.70;93.50;;;;;;4935628;29;20237;-80
2023/03/13 07:08:36;;;;;;;10.37;8.80;;;9.70;93.40;;;;;;4929664;29;20604;-81
2023/03/13 07:11:06;;;;;;;12.63;9.77;;;9.80;93.30;;;;;;4922035;29;20572;-81
2023/03/13 07:13:34;;;;;;;14.37;9.43;;;9.80;93.30;;;;;;4932940;29;20199;-81
2023/03/13 07:16:04;;;;;;;10.73;9.23;;;9.90;93.20;;;;;;4935106;29;20648;-81
2023/03/13 07:18:32;;;;;;;14.37;9.40;;;10.00;93.10;;;;;;4934346;29;20719;-81
2023/03/13 07:21:03;;;;;;;12.10;9.60;;;10.00;93.10;;;;;;4931253;29;20221;-80
2023/03/13 07:23:33;;;;;;;15.00;9.50;;;10.10;93.10;;;;;;4935057;29;20209;-81
2023/03/13 07:26:09;;;;;;;12.20;10.03;;;10.20;93.00;;;;;;4929936;29;20254;-80
2023/03/13 07:28:36;;;;;;;15.93;10.10;;;10.30;92.90;;;;;;4929955;29;20201;-81
2023/03/13 07:31:06;;;;;;;13.43;10.43;;;10.40;92.90;;;;;;4907902;29;20242;-82
2023/03/13 07:33:34;;;;;;;10.63;9.40;;;10.50;92.80;;;;;;4931537;29;20229;-81
2023/03/13 07:36:01;;;;;;;13.23;9.70;;;10.60;92.70;;;;;;4917490;29;20218;-81
2023/03/13 07:38:29;;;;;;;16.83;9.43;;;10.70;92.60;;;;;;4926587;29;20230;-80
2023/03/13 07:40:57;;;;;;;13.70;9.60;;;10.70;92.40;;;;;;4926765;29;20215;-80
2023/03/13 07:43:34;;;;;;;13.37;9.17;;;10.80;92.30;;;;;;5098867;27;1313056;-66
2023/03/13 07:46:04;;;;;;;11.10;8.23;;;10.90;92.30;;;;;;5126752;27;20195;-66
2023/03/13 07:48:37;;;;;;;11.20;9.00;;;10.90;91.70;;;;;;5126376;28;20206;-66
2023/03/13 07:51:06;;;;;;;10.63;9.40;;;10.90;91.10;;;;;;5126625;28;20199;-66
2023/03/13 07:53:33;;;;;;;12.80;9.30;;;10.90;91.30;;;;;;5127398;27;20289;-66
2023/03/13 07:56:12;;;;;;;14.17;9.53;;;11.00;91.50;;;;;;5127749;28;20190;-66
2023/03/13 07:58:40;;;;;;;14.50;9.73;;;11.10;91.60;;;;;;5127568;28;20413;-66
2023/03/13 08:01:27;;;;;;;12.83;9.67;;;11.30;91.50;;;;;;5129320;27;20202;-66
2023/03/13 08:03:59;;;;;;;11.17;9.10;;;11.50;91.40;;;;;;5127360;28;20214;-66
2023/03/13 08:06:29;;;;;;;11.53;8.53;;;11.70;91.30;;;;;;5127752;28;20716;-66
2023/03/13 08:08:59;;;;;;;10.43;8.27;;;11.90;91.10;;;;;;5126952;28;20192;-66
2023/03/13 08:11:27;;;;;;;11.43;8.50;;;12.10;90.70;;;;;;5128029;27;20196;-66
2023/03/13 08:13:55;;;;;;;10.83;9.03;;;12.30;90.30;;;;;;5127922;28;20309;-66
2023/03/13 08:16:28;;;;;;;10.07;9.07;;;12.60;89.50;;;;;;5133985;27;20261;-66
2023/03/13 08:18:57;;;;;;;10.20;8.97;;;12.70;88.30;;;;;;5123469;28;20195;-66
2023/03/13 08:21:27;;;;;;;13.43;9.13;;;12.90;87.90;;;;;;5125639;27;20199;-66
2023/03/13 08:23:56;;;;;;;12.00;8.47;;;13.00;87.20;;;;;;5126616;28;20230;-66
2023/03/13 08:26:26;;;;;;;13.67;7.90;;;13.10;86.30;;;;;;5125716;27;20203;-66
2023/03/13 08:29:05;;;;;;;10.93;8.37;;;13.20;85.40;;;;;;5126756;27;20277;-66
2023/03/13 08:31:51;;;;;;;11.03;9.50;;;13.30;84.50;;;;;;5125298;28;20191;-66
2023/03/13 08:34:18;;;;;;;11.67;8.77;;;13.30;84.00;;;;;;5126148;28;20196;-66
2023/03/13 08:36:46;;;;;;;14.60;9.47;;;13.40;83.90;;;;;;5125312;28;20241;-65
2023/03/13 08:39:15;;;;;;;12.60;9.57;;;13.40;83.20;;;;;;5126342;28;20196;-66
2023/03/13 08:41:43;;;;;;;12.73;9.60;;;13.40;83.70;;;;;;5129068;27;20239;-66
2023/03/13 08:44:12;;;;;;;15.47;8.80;;;13.50;83.40;;;;;;5122760;28;20499;-65
2023/03/13 08:46:39;;;;;;;9.67;8.67;;;13.60;81.30;;;;;;5120319;28;20215;-65
2023/03/13 08:49:07;;;;;;;11.27;9.10;;;13.60;81.60;;;;;;5122826;28;20543;-65
2023/03/13 08:51:34;;;;;;;12.93;8.50;;;13.80;82.00;;;;;;5125145;27;20270;-66
2023/03/13 08:54:02;;;;;;;12.60;9.23;;;14.00;81.10;;;;;;5117998;28;20520;-66
2023/03/13 08:56:30;;;;;;;8.70;7.77;;;14.20;80.10;;;;;;5115288;27;20212;-66
2023/03/13 08:59:00;;;;;;;12.00;8.20;;;14.50;79.60;;;;;;5121219;27;20200;-66
2023/03/13 09:01:30;;;;;;;9.33;8.43;;;14.70;78.60;;;;;;5114263;28;20626;-66
2023/03/13 09:03:57;;;;;;;9.93;8.67;;;14.70;78.10;;;;;;5111131;28;20280;-66
2023/03/13 09:06:27;;;;;;;10.60;7.63;;;14.90;78.10;;;;;;5112316;28;20192;-66
2023/03/13 09:08:57;;;;;;;8.63;7.73;;;15.00;77.50;;;;;;5115164;28;20218;-66
2023/03/13 09:11:25;;;;;;;11.83;7.93;;;15.20;76.10;;;;;;5109950;27;20193;-66
2023/03/13 09:13:54;;;;;;;9.17;8.17;;;15.30;75.70;;;;;;5112719;28;20243;-66
2023/03/13 09:16:23;;;;;;;10.57;7.73;;;15.40;75.80;;;;;;5107593;28;20793;-66
2023/03/13 09:18:51;;;;;;;10.43;7.97;;;15.60;75.10;;;;;;5110020;28;20585;-66
2023/03/13 09:21:21;;;;;;;11.27;8.10;;;15.70;74.20;;;;;;5111920;28;20290;-66
2023/03/13 09:23:49;;;;;;;8.50;7.60;;;15.70;73.20;;;;;;5113845;28;20219;-66
2023/03/13 09:26:17;;;;;;;8.17;7.37;;;15.70;73.10;;;;;;5108609;28;20192;-66
2023/03/13 09:28:47;;;;;;;7.53;6.43;;;15.60;71.90;;;;;;5113685;28;20226;-66
2023/03/13 09:31:15;;;;;;;8.50;7.50;;;15.50;72.50;;;;;;5112398;28;20220;-66
2023/03/13 09:33:43;;;;;;;10.10;8.47;;;15.40;73.10;;;;;;5113039;28;20625;-66
2023/03/13 09:36:10;;;;;;;9.83;8.13;;;15.40;73.20;;;;;;5104790;28;20210;-66
2023/03/13 09:38:39;;;;;;;10.50;7.73;;;15.40;73.30;;;;;;5103733;28;20212;-66
2023/03/13 09:41:43;;;;;;;9.93;8.23;;;15.40;73.40;;;;;;5111354;28;20224;-66
2023/03/13 09:44:48;;;;;;;10.40;8.23;;;15.50;74.10;;;;;;5113216;28;20688;-66
2023/03/13 09:47:25;;;;;;;10.03;8.17;;;15.70;74.70;;;;;;5107252;28;20201;-66
2023/03/13 09:50:09;;;;;;;14.60;7.90;;;15.90;73.30;;;;;;5112569;28;20272;-66
2023/03/13 09:52:40;;;;;;;8.93;8.03;;;16.10;73.50;;;;;;5109357;28;20198;-66
2023/03/13 09:55:14;;;;;;;10.23;8.17;;;16.30;72.80;;;;;;5108392;28;20200;-66
2023/03/13 09:57:54;;;;;;;10.83;8.70;;;16.40;72.60;;;;;;5114630;28;20564;-65
2023/03/13 10:00:33;;;;;;;13.40;9.73;;;16.50;71.80;;;;;;5108369;28;20196;-66
2023/03/13 10:03:22;;;;;;;10.43;8.37;;;16.50;70.90;;;;;;5112597;28;20573;-66
2023/03/13 10:05:54;;;;;;;14.67;9.07;;;16.50;71.50;;;;;;5108856;28;20280;-66
2023/03/13 10:08:26;;;;;;;10.87;8.27;;;16.60;72.10;;;;;;5110756;27;20206;-66
2023/03/13 10:11:02;;;;;;;10.37;8.00;;;16.70;71.50;;;;;;5110709;28;20193;-66
2023/03/13 10:13:41;;;;;;;10.17;8.83;;;16.70;71.80;;;;;;5111485;28;20642;-66
2023/03/13 10:16:21;;;;;;;12.77;7.70;;;16.80;72.40;;;;;;5106306;28;20194;-66
2023/03/13 10:18:54;;;;;;;8.67;7.77;;;16.80;72.50;;;;;;5110764;28;20195;-66
2023/03/13 10:21:28;;;;;;;9.00;8.10;;;16.80;72.70;;;;;;5109781;28;20194;-66
2023/03/13 10:24:04;;;;;;;7.93;7.13;;;16.90;72.30;;;;;;5109613;28;20660;-66
2023/03/13 10:26:34;;;;;;;7.03;5.90;;;16.90;72.00;;;;;;5110763;28;21368;-66
2023/03/13 10:29:14;;;;;;;8.27;5.53;;;16.90;72.90;;;;;;5112254;27;20202;-65
2023/03/13 10:31:49;;;;;;;9.07;7.23;;;16.90;73.40;;;;;;5112048;28;20254;-66
2023/03/13 10:34:16;;;;;;;7.20;6.20;;;17.00;73.50;;;;;;5113450;28;20637;-66
2023/03/13 10:36:46;;;;;;;9.60;6.50;;;17.20;72.40;;;;;;5112281;28;20508;-66
2023/03/13 10:39:19;;;;;;;9.87;5.73;;;17.20;72.00;;;;;;5112086;28;20625;-66
2023/03/13 10:41:56;;;;;;;7.33;6.63;;;17.30;72.10;;;;;;5113165;28;20235;-66
2023/03/13 10:44:31;;;;;;;8.63;5.70;;;17.30;72.50;;;;;;5107482;28;20199;-66
2023/03/13 10:47:01;;;;;;;9.57;6.13;;;17.40;71.40;;;;;;5109444;28;20592;-66
2023/03/13 10:49:30;;;;;;;6.80;5.67;;;17.50;71.80;;;;;;5109112;28;20330;-66
2023/03/13 10:51:58;;;;;;;9.20;5.63;;;17.60;71.60;;;;;;5108501;28;20206;-66
2023/03/13 10:54:27;;;;;;;8.57;5.47;;;17.70;71.10;;;;;;5107025;28;20715;-66
2023/03/13 10:57:22;;;;;;;9.93;6.33;;;17.80;70.50;;;;;;5110449;28;20207;-65
2023/03/13 10:59:51;;;;;;;6.87;5.90;;;17.90;69.90;;;;;;5110151;28;20627;-65
2023/03/13 11:02:37;;;;;;;6.83;6.03;;;17.90;69.30;;;;;;5112220;28;20754;-66
2023/03/13 11:05:41;;;;;;;7.87;6.07;;;17.80;69.20;;;;;;5108764;28;20697;-65
2023/03/13 11:08:24;;;;;;;9.70;6.60;;;17.70;69.60;;;;;;5108635;28;20207;-66
2023/03/13 11:10:56;;;;;;;7.13;6.37;;;17.70;70.10;;;;;;5108773;28;20199;-65
2023/03/13 11:13:28;;;;;;;8.80;5.53;;;17.70;69.20;;;;;;5110105;28;20203;-66
2023/03/13 11:16:25;;;;;;;7.67;6.37;;;17.80;68.50;;;;;;5104496;28;20209;-66
2023/03/13 11:19:17;;;;;;;8.17;6.87;;;17.80;69.20;;;;;;5107090;28;20207;-65
2023/03/13 11:22:17;;;;;;;9.27;6.50;;;17.90;69.20;;;;;;5113147;28;20201;-66
2023/03/13 11:25:19;;;;;;;7.90;6.53;;;18.00;68.90;;;;;;5110785;28;20199;-66
2023/03/13 11:28:18;;;;;;;7.77;6.13;;;18.20;68.70;;;;;;5108787;28;20204;-66
2023/03/13 11:31:12;;;;;;;8.53;6.37;;;18.20;67.00;;;;;;5111378;28;20207;-65
2023/03/13 11:33:58;;;;;;;10.53;5.97;;;18.10;66.80;;;;;;5112672;28;20200;-66
2023/03/13 11:37:03;;;;;;;9.23;6.53;;;18.00;66.90;;;;;;5105270;28;20540;-66
2023/03/13 11:39:48;;;;;;;9.60;6.40;;;17.90;67.30;;;;;;5110609;28;20212;-65
2023/03/13 11:42:37;;;;;;;9.20;6.50;;;17.70;68.30;;;;;;5110521;28;20241;-66
2023/03/13 11:45:41;;;;;;;7.13;6.43;;;17.80;68.20;;;;;;5105381;28;20188;-66
2023/03/13 11:48:34;;;;;;;12.03;7.63;;;18.00;69.50;;;;;;5110572;28;20289;-66
2023/03/13 11:51:25;;;;;;;9.07;6.20;;;18.20;68.80;;;;;;5112934;28;20294;-65
2023/03/13 11:54:07;;;;;;;17.03;6.90;;;18.30;67.90;;;;;;5112424;28;20207;-65
2023/03/13 11:56:45;;;;;;;8.70;6.50;;;18.30;68.30;;;;;;5109345;28;20292;-66
2023/03/13 11:59:15;;;;;;;10.37;6.50;;;18.40;67.40;;;;;;5110630;28;20640;-63
2023/03/13 12:01:52;;;;;;;10.73;7.10;;;18.40;67.00;;;;;;5109731;28;20238;-66
2023/03/13 12:04:32;;;;;;;8.23;7.40;;;18.40;67.10;;;;;;5110191;28;20220;-66
2023/03/13 12:07:10;;;;;;;7.33;6.63;;;18.30;67.10;;;;;;5125381;28;20199;-65
2023/03/13 12:10:00;;;;;;;13.43;7.60;;;18.30;67.00;;;;;;5111196;28;20214;-66
2023/03/13 12:12:40;;;;;;;13.33;7.20;;;18.30;67.10;;;;;;5127016;28;20219;-66
2023/03/13 12:15:20;;;;;;;8.77;6.13;;;18.20;67.70;;;;;;5110270;28;20195;-65
2023/03/13 12:18:02;;;;;;;10.07;6.53;;;18.10;68.50;;;;;;5109861;28;20291;-66
2023/03/13 12:20:43;;;;;;;8.17;6.77;;;18.00;68.70;;;;;;5104866;28;20210;-65
2023/03/13 12:23:17;;;;;;;8.27;6.53;;;18.00;68.80;;;;;;5107441;28;20219;-66
2023/03/13 12:26:11;;;;;;;14.73;6.87;;;18.10;68.50;;;;;;5110618;28;20196;-65
2023/03/13 12:29:07;;;;;;;10.33;7.30;;;18.20;68.40;;;;;;5109966;28;20233;-66
2023/03/13 12:32:00;;;;;;;11.73;6.70;;;18.30;66.50;;;;;;5114111;28;20196;-65
2023/03/13 12:35:01;;;;;;;9.87;7.17;;;18.30;67.10;;;;;;5114230;28;20214;-65
2023/03/13 12:37:57;;;;;;;9.93;8.03;;;18.30;67.00;;;;;;5098524;28;20310;-65
2023/03/13 12:41:16;;;;;;;8.80;6.93;;;18.30;67.90;;;;;;5116289;28;20211;-66
2023/03/13 12:43:46;;;;;;;10.30;7.43;;;18.40;68.90;;;;;;5099034;28;20571;-65
2023/03/13 12:46:37;;;;;;;10.50;6.33;;;18.50;67.40;;;;;;5111615;28;20300;-66
2023/03/13 12:49:04;;;;;;;8.00;6.73;;;18.60;65.80;;;;;;5114226;28;20200;-66
2023/03/13 12:51:43;;;;;;;22.90;17.23;;;18.70;66.30;;;;;;5112267;28;20666;-66
2023/03/13 12:54:39;;;;;;;12.40;6.90;;;18.70;65.90;;;;;;5111996;28;20209;-65
2023/03/13 12:57:33;;;;;;;8.53;6.97;;;18.80;65.60;;;;;;5111555;28;20254;-66
2023/03/13 13:00:05;;;;;;;12.43;7.17;;;18.80;64.40;;;;;;5115412;28;20618;-66
2023/03/13 13:02:32;;;;;;;10.03;7.70;;;18.90;64.10;;;;;;5111956;28;20200;-66
2023/03/13 13:05:01;;;;;;;9.30;6.93;;;18.90;64.70;;;;;;5114303;28;20227;-66
2023/03/13 13:07:35;;;;;;;9.87;7.37;;;18.90;63.70;;;;;;5113796;28;20567;-66
2023/03/13 13:10:08;;;;;;;8.63;7.10;;;18.90;64.70;;;;;;5112947;28;20230;-66
2023/03/13 13:12:40;;;;;;;11.93;7.50;;;18.90;63.80;;;;;;5111042;28;20200;-66
2023/03/13 13:15:14;;;;;;;9.23;7.20;;;18.90;64.70;;;;;;5109815;28;20197;-66
2023/03/13 13:17:49;;;;;;;13.37;8.00;;;19.00;65.60;;;;;;5114556;28;20223;-65
2023/03/13 13:20:40;;;;;;;9.27;8.23;;;19.00;66.00;;;;;;5109454;27;20202;-66
2023/03/13 13:23:32;;;;;;;9.23;8.07;;;19.00;65.00;;;;;;5109023;28;20233;-65
2023/03/13 13:26:36;;;;;;;13.97;8.20;;;19.00;65.00;;;;;;5114754;28;20203;-65
2023/03/13 13:29:12;;;;;;;9.33;8.30;;;18.90;65.20;;;;;;5112691;28;20537;-66
2023/03/13 13:31:50;;;;;;;10.53;8.63;;;18.80;64.90;;;;;;5109929;28;20196;-65